sensor_id;sensor_type;location;lat;lon;timestamp;pressure;altitude;pressure_sealevel;temperature;humidity
35676;BME280;21790;42.668;23.298;2023-02-13T00:02:25;96419.75;;;7.34;46.35
35676;BME280;21790;42.668;23.298;2023-02-13T00:04:50;96421.38;;;7.24;46.70
35676;BME280;21790;42.668;23.298;2023-02-13T00:07:16;96422.41;;;7.55;46.08
35676;BME280;21790;42.668;23.298;2023-02-13T00:09:42;96418.00;;;7.72;45.20
35676;BME280;21790;42.668;23.298;2023-02-13T00:12:08;96409.44;;;7.55;45.76
35676;BME280;21790;42.668;23.298;2023-02-13T00:14:40;96417.66;;;7.66;45.69
35676;BME280;21790;42.668;23.298;2023-02-13T00:17:11;96419.97;;;7.71;45.99
35676;BME280;21790;42.668;23.298;2023-02-13T00:19:37;96410.63;;;7.58;46.00
35676;BME280;21790;42.668;23.298;2023-02-13T00:22:02;96425.47;;;7.75;45.55
35676;BME280;21790;42.668;23.298;2023-02-13T00:24:28;96420.00;;;7.64;45.36
35676;BME280;21790;42.668;23.298;2023-02-13T00:26:53;96421.47;;;7.90;45.39
35676;BME280;21790;42.668;23.298;2023-02-13T00:29:19;96426.25;;;7.75;45.59
35676;BME280;21790;42.668;23.298;2023-02-13T00:31:45;96423.19;;;7.59;45.76
35676;BME280;21790;42.668;23.298;2023-02-13T00:34:11;96427.91;;;7.62;45.86
35676;BME280;21790;42.668;23.298;2023-02-13T00:36:37;96427.16;;;7.51;46.17
35676;BME280;21790;42.668;23.298;2023-02-13T00:39:03;96425.50;;;7.64;45.66
35676;BME280;21790;42.668;23.298;2023-02-13T00:41:29;96424.75;;;7.64;45.87
35676;BME280;21790;42.668;23.298;2023-02-13T00:43:55;96427.09;;;7.69;45.49
35676;BME280;21790;42.668;23.298;2023-02-13T00:46:20;96432.13;;;7.77;45.45
35676;BME280;21790;42.668;23.298;2023-02-13T00:48:46;96434.66;;;7.43;46.13
35676;BME280;21790;42.668;23.298;2023-02-13T00:51:11;96428.72;;;7.52;46.20
35676;BME280;21790;42.668;23.298;2023-02-13T00:53:37;96427.91;;;7.55;46.36
35676;BME280;21790;42.668;23.298;2023-02-13T00:56:04;96438.19;;;7.40;46.50
35676;BME280;21790;42.668;23.298;2023-02-13T00:58:37;96445.88;;;7.81;46.03
35676;BME280;21790;42.668;23.298;2023-02-13T01:01:04;96440.88;;;7.54;45.87
35676;BME280;21790;42.668;23.298;2023-02-13T01:03:29;96449.22;;;7.40;46.21
35676;BME280;21790;42.668;23.298;2023-02-13T01:05:56;96448.03;;;7.34;46.65
35676;BME280;21790;42.668;23.298;2023-02-13T01:08:22;96437.81;;;7.35;46.38
35676;BME280;21790;42.668;23.298;2023-02-13T01:10:49;96444.03;;;7.53;45.96
35676;BME280;21790;42.668;23.298;2023-02-13T01:13:25;96442.28;;;7.91;45.41
35676;BME280;21790;42.668;23.298;2023-02-13T01:15:50;96442.81;;;7.65;45.89
35676;BME280;21790;42.668;23.298;2023-02-13T01:18:19;96435.28;;;7.76;45.60
35676;BME280;21790;42.668;23.298;2023-02-13T01:20:45;96439.66;;;7.66;46.01
35676;BME280;21790;42.668;23.298;2023-02-13T01:23:20;96440.50;;;7.56;46.13
35676;BME280;21790;42.668;23.298;2023-02-13T01:25:45;96453.03;;;7.64;46.17
35676;BME280;21790;42.668;23.298;2023-02-13T01:28:11;96449.84;;;7.73;45.67
35676;BME280;21790;42.668;23.298;2023-02-13T01:30:36;96449.84;;;7.69;45.99
35676;BME280;21790;42.668;23.298;2023-02-13T01:33:02;96447.19;;;7.51;46.58
35676;BME280;21790;42.668;23.298;2023-02-13T01:35:28;96452.25;;;7.60;46.58
35676;BME280;21790;42.668;23.298;2023-02-13T01:37:54;96456.94;;;7.74;46.01
35676;BME280;21790;42.668;23.298;2023-02-13T01:40:19;96454.94;;;7.78;46.02
35676;BME280;21790;42.668;23.298;2023-02-13T01:42:45;96452.22;;;7.74;45.87
35676;BME280;21790;42.668;23.298;2023-02-13T01:45:29;96451.66;;;8.04;45.85
35676;BME280;21790;42.668;23.298;2023-02-13T01:48:15;96449.78;;;7.90;46.04
35676;BME280;21790;42.668;23.298;2023-02-13T01:51:03;96450.91;;;7.96;46.23
35676;BME280;21790;42.668;23.298;2023-02-13T01:56:22;96436.81;;;7.87;46.17
35676;BME280;21790;42.668;23.298;2023-02-13T01:58:50;96461.41;;;8.16;45.56
35676;BME280;21790;42.668;23.298;2023-02-13T02:01:18;96467.84;;;7.95;46.28
35676;BME280;21790;42.668;23.298;2023-02-13T02:03:48;96462.63;;;8.08;46.09
35676;BME280;21790;42.668;23.298;2023-02-13T02:06:25;96466.56;;;8.10;45.96
35676;BME280;21790;42.668;23.298;2023-02-13T02:08:54;96470.16;;;7.96;46.34
35676;BME280;21790;42.668;23.298;2023-02-13T02:11:35;96459.88;;;8.08;46.14
35676;BME280;21790;42.668;23.298;2023-02-13T02:14:03;96460.41;;;7.85;46.51
35676;BME280;21790;42.668;23.298;2023-02-13T02:16:30;96451.31;;;7.91;46.56
35676;BME280;21790;42.668;23.298;2023-02-13T02:18:57;96461.47;;;8.05;46.27
35676;BME280;21790;42.668;23.298;2023-02-13T02:27:11;96452.75;;;8.17;46.03
35676;BME280;21790;42.668;23.298;2023-02-13T02:32:47;96450.41;;;8.16;45.91
35676;BME280;21790;42.668;23.298;2023-02-13T02:35:32;96448.88;;;8.08;45.96
35676;BME280;21790;42.668;23.298;2023-02-13T02:41:31;96459.53;;;8.06;45.85
35676;BME280;21790;42.668;23.298;2023-02-13T02:44:38;96465.44;;;7.97;46.23
35676;BME280;21790;42.668;23.298;2023-02-13T02:50:24;96470.22;;;7.86;45.93
35676;BME280;21790;42.668;23.298;2023-02-13T02:53:07;96479.22;;;7.97;45.72
35676;BME280;21790;42.668;23.298;2023-02-13T02:55:43;96485.94;;;7.96;46.08
35676;BME280;21790;42.668;23.298;2023-02-13T03:00:56;96484.03;;;7.79;46.43
35676;BME280;21790;42.668;23.298;2023-02-13T03:03:42;96487.56;;;7.83;46.22
35676;BME280;21790;42.668;23.298;2023-02-13T03:09:04;96476.88;;;7.92;45.63
35676;BME280;21790;42.668;23.298;2023-02-13T03:11:50;96485.94;;;7.89;45.80
35676;BME280;21790;42.668;23.298;2023-02-13T03:14:36;96481.75;;;7.63;46.41
35676;BME280;21790;42.668;23.298;2023-02-13T03:17:02;96477.03;;;7.64;46.18
35676;BME280;21790;42.668;23.298;2023-02-13T03:31:30;96491.38;;;8.07;45.47
35676;BME280;21790;42.668;23.298;2023-02-13T03:34:03;96486.72;;;7.93;45.20
35676;BME280;21790;42.668;23.298;2023-02-13T03:42:17;96493.31;;;8.10;45.29
35676;BME280;21790;42.668;23.298;2023-02-13T03:44:51;96491.81;;;8.02;45.40
35676;BME280;21790;42.668;23.298;2023-02-13T03:47:38;96469.03;;;7.90;45.16
35676;BME280;21790;42.668;23.298;2023-02-13T03:50:08;96481.09;;;8.18;44.98
35676;BME280;21790;42.668;23.298;2023-02-13T03:52:41;96481.47;;;8.16;44.90
35676;BME280;21790;42.668;23.298;2023-02-13T03:55:15;96480.00;;;7.97;45.49
35676;BME280;21790;42.668;23.298;2023-02-13T04:01:18;96480.00;;;7.97;45.07
35676;BME280;21790;42.668;23.298;2023-02-13T04:06:20;96478.78;;;8.06;45.20
35676;BME280;21790;42.668;23.298;2023-02-13T04:08:48;96478.84;;;7.95;45.15
35676;BME280;21790;42.668;23.298;2023-02-13T04:11:32;96485.44;;;8.12;45.06
35676;BME280;21790;42.668;23.298;2023-02-13T04:14:03;96476.53;;;7.83;45.54
35676;BME280;21790;42.668;23.298;2023-02-13T04:16:35;96488.69;;;7.92;45.35
35676;BME280;21790;42.668;23.298;2023-02-13T04:19:02;96491.00;;;7.97;45.42
35676;BME280;21790;42.668;23.298;2023-02-13T04:21:33;96490.69;;;7.88;45.28
35676;BME280;21790;42.668;23.298;2023-02-13T04:23:59;96483.63;;;7.84;45.05
35676;BME280;21790;42.668;23.298;2023-02-13T04:26:28;96486.28;;;8.05;45.08
35676;BME280;21790;42.668;23.298;2023-02-13T04:28:56;96487.91;;;7.95;45.17
35676;BME280;21790;42.668;23.298;2023-02-13T04:31:41;96480.31;;;8.17;44.41
35676;BME280;21790;42.668;23.298;2023-02-13T04:34:06;96493.09;;;7.79;45.31
35676;BME280;21790;42.668;23.298;2023-02-13T04:36:34;96486.34;;;7.87;45.09
35676;BME280;21790;42.668;23.298;2023-02-13T04:45:13;96480.50;;;7.75;45.61
35676;BME280;21790;42.668;23.298;2023-02-13T04:48:06;96474.78;;;8.14;44.73
35676;BME280;21790;42.668;23.298;2023-02-13T04:50:37;96488.16;;;8.15;44.69
35676;BME280;21790;42.668;23.298;2023-02-13T04:53:09;96482.63;;;8.22;44.90
35676;BME280;21790;42.668;23.298;2023-02-13T04:59:04;96492.44;;;8.30;44.43
35676;BME280;21790;42.668;23.298;2023-02-13T05:12:51;96505.19;;;9.13;42.18
35676;BME280;21790;42.668;23.298;2023-02-13T05:15:17;96506.63;;;8.84;42.85
35676;BME280;21790;42.668;23.298;2023-02-13T05:17:44;96505.34;;;8.44;43.39
35676;BME280;21790;42.668;23.298;2023-02-13T05:20:22;96511.47;;;8.69;42.97
35676;BME280;21790;42.668;23.298;2023-02-13T05:29:20;96514.09;;;8.21;44.09
35676;BME280;21790;42.668;23.298;2023-02-13T05:31:57;96516.03;;;8.31;43.83
35676;BME280;21790;42.668;23.298;2023-02-13T05:34:58;96521.88;;;8.40;44.26
35676;BME280;21790;42.668;23.298;2023-02-13T05:40:49;96517.16;;;8.41;44.06
35676;BME280;21790;42.668;23.298;2023-02-13T05:43:24;96522.31;;;8.39;44.00
35676;BME280;21790;42.668;23.298;2023-02-13T05:46:02;96491.31;;;8.17;44.20
35676;BME280;21790;42.668;23.298;2023-02-13T05:49:03;96523.50;;;8.38;43.93
35676;BME280;21790;42.668;23.298;2023-02-13T05:51:53;96528.25;;;8.30;44.15
35676;BME280;21790;42.668;23.298;2023-02-13T05:54:25;96529.44;;;8.19;44.33
35676;BME280;21790;42.668;23.298;2023-02-13T05:56:52;96536.59;;;8.09;44.57
35676;BME280;21790;42.668;23.298;2023-02-13T05:59:35;96539.66;;;8.32;44.24
35676;BME280;21790;42.668;23.298;2023-02-13T06:02:28;96539.66;;;8.32;44.02
35676;BME280;21790;42.668;23.298;2023-02-13T06:04:54;96533.91;;;7.95;44.53
35676;BME280;21790;42.668;23.298;2023-02-13T06:10:35;96543.16;;;8.29;43.82
35676;BME280;21790;42.668;23.298;2023-02-13T06:13:05;96552.63;;;8.25;43.99
35676;BME280;21790;42.668;23.298;2023-02-13T06:15:38;96539.13;;;8.52;43.49
35676;BME280;21790;42.668;23.298;2023-02-13T06:18:19;96536.06;;;8.43;43.50
35676;BME280;21790;42.668;23.298;2023-02-13T06:20:46;96540.38;;;8.44;43.63
35676;BME280;21790;42.668;23.298;2023-02-13T06:23:14;96553.00;;;8.37;43.53
35676;BME280;21790;42.668;23.298;2023-02-13T06:25:43;96521.94;;;8.30;43.69
35676;BME280;21790;42.668;23.298;2023-02-13T06:28:14;96556.09;;;8.47;43.49
35676;BME280;21790;42.668;23.298;2023-02-13T06:33:43;96559.75;;;8.19;44.33
35676;BME280;21790;42.668;23.298;2023-02-13T06:36:09;96560.91;;;8.28;44.00
35676;BME280;21790;42.668;23.298;2023-02-13T06:38:34;96560.91;;;8.28;43.95
35676;BME280;21790;42.668;23.298;2023-02-13T06:41:01;96559.63;;;8.47;43.75
35676;BME280;21790;42.668;23.298;2023-02-13T06:43:28;96562.47;;;8.26;44.21
35676;BME280;21790;42.668;23.298;2023-02-13T06:45:53;96563.13;;;8.58;43.52
35676;BME280;21790;42.668;23.298;2023-02-13T06:48:19;96567.75;;;8.72;43.46
35676;BME280;21790;42.668;23.298;2023-02-13T06:50:45;96565.03;;;8.65;43.09
35676;BME280;21790;42.668;23.298;2023-02-13T06:56:33;96557.25;;;8.53;43.48
35676;BME280;21790;42.668;23.298;2023-02-13T06:59:04;96554.34;;;8.77;43.03
35676;BME280;21790;42.668;23.298;2023-02-13T07:01:29;96558.34;;;8.66;43.01
35676;BME280;21790;42.668;23.298;2023-02-13T07:03:56;96566.22;;;8.64;43.00
35676;BME280;21790;42.668;23.298;2023-02-13T07:06:22;96561.09;;;8.62;43.11
35676;BME280;21790;42.668;23.298;2023-02-13T07:08:48;96561.91;;;8.66;43.25
35676;BME280;21790;42.668;23.298;2023-02-13T07:11:19;96545.72;;;8.72;43.07
35676;BME280;21790;42.668;23.298;2023-02-13T07:13:45;96553.13;;;8.78;43.17
35676;BME280;21790;42.668;23.298;2023-02-13T07:16:10;96555.47;;;8.80;43.01
35676;BME280;21790;42.668;23.298;2023-02-13T07:18:36;96560.66;;;8.74;43.33
35676;BME280;21790;42.668;23.298;2023-02-13T07:21:02;96553.09;;;8.86;42.54
35676;BME280;21790;42.668;23.298;2023-02-13T07:23:27;96557.03;;;8.85;42.61
35676;BME280;21790;42.668;23.298;2023-02-13T07:25:52;96564.06;;;8.93;42.45
35676;BME280;21790;42.668;23.298;2023-02-13T07:28:19;96575.94;;;8.86;42.69
35676;BME280;21790;42.668;23.298;2023-02-13T07:30:44;96571.13;;;8.97;42.40
35676;BME280;21790;42.668;23.298;2023-02-13T07:33:10;96563.25;;;8.96;42.59
35676;BME280;21790;42.668;23.298;2023-02-13T07:35:35;96564.78;;;9.00;42.35
35676;BME280;21790;42.668;23.298;2023-02-13T07:38:02;96570.66;;;9.06;42.14
35676;BME280;21790;42.668;23.298;2023-02-13T07:40:28;96564.81;;;8.97;42.53
35676;BME280;21790;42.668;23.298;2023-02-13T07:42:54;96567.13;;;9.05;42.51
35676;BME280;21790;42.668;23.298;2023-02-13T07:45:19;96558.56;;;8.93;42.64
35676;BME280;21790;42.668;23.298;2023-02-13T07:47:45;96575.97;;;8.82;43.05
35676;BME280;21790;42.668;23.298;2023-02-13T07:50:10;96560.59;;;8.81;42.57
35676;BME280;21790;42.668;23.298;2023-02-13T07:52:36;96564.91;;;8.86;42.43
35676;BME280;21790;42.668;23.298;2023-02-13T07:55:04;96563.09;;;9.13;42.21
35676;BME280;21790;42.668;23.298;2023-02-13T07:57:30;96559.75;;;8.92;42.54
35676;BME280;21790;42.668;23.298;2023-02-13T07:59:56;96564.44;;;8.95;42.23
35676;BME280;21790;42.668;23.298;2023-02-13T08:02:22;96554.22;;;8.92;42.42
35676;BME280;21790;42.668;23.298;2023-02-13T08:04:47;96571.78;;;9.12;42.17
35676;BME280;21790;42.668;23.298;2023-02-13T08:07:14;96568.53;;;9.24;41.98
35676;BME280;21790;42.668;23.298;2023-02-13T08:09:40;96567.75;;;9.23;41.84
35676;BME280;21790;42.668;23.298;2023-02-13T08:12:24;96565.38;;;9.26;41.71
35676;BME280;21790;42.668;23.298;2023-02-13T08:14:52;96563.66;;;9.39;41.95
35676;BME280;21790;42.668;23.298;2023-02-13T08:17:17;96561.34;;;9.37;41.72
35676;BME280;21790;42.668;23.298;2023-02-13T08:19:43;96557.63;;;9.54;41.19
35676;BME280;21790;42.668;23.298;2023-02-13T08:22:08;96553.97;;;9.64;41.16
35676;BME280;21790;42.668;23.298;2023-02-13T08:24:33;96564.25;;;9.60;41.18
35676;BME280;21790;42.668;23.298;2023-02-13T08:26:59;96573.34;;;9.57;41.33
35676;BME280;21790;42.668;23.298;2023-02-13T08:29:24;96559.75;;;9.36;41.59
35676;BME280;21790;42.668;23.298;2023-02-13T08:31:50;96574.59;;;9.53;41.43
35676;BME280;21790;42.668;23.298;2023-02-13T08:34:15;96567.91;;;9.50;41.42
35676;BME280;21790;42.668;23.298;2023-02-13T08:36:41;96562.88;;;9.42;41.46
35676;BME280;21790;42.668;23.298;2023-02-13T08:39:08;96561.53;;;9.57;41.62
35676;BME280;21790;42.668;23.298;2023-02-13T08:41:33;96558.31;;;9.62;41.29
35676;BME280;21790;42.668;23.298;2023-02-13T08:43:59;96562.22;;;9.68;41.01
35676;BME280;21790;42.668;23.298;2023-02-13T08:46:25;96558.03;;;9.53;41.35
35676;BME280;21790;42.668;23.298;2023-02-13T08:48:51;96561.03;;;9.65;41.13
35676;BME280;21790;42.668;23.298;2023-02-13T08:51:16;96562.25;;;9.64;41.25
35676;BME280;21790;42.668;23.298;2023-02-13T08:53:44;96564.78;;;9.86;41.10
35676;BME280;21790;42.668;23.298;2023-02-13T08:56:10;96561.75;;;9.73;41.32
35676;BME280;21790;42.668;23.298;2023-02-13T08:58:35;96562.16;;;9.72;41.41
35676;BME280;21790;42.668;23.298;2023-02-13T09:01:06;96569.88;;;9.87;41.05
35676;BME280;21790;42.668;23.298;2023-02-13T09:03:32;96561.38;;;9.71;41.24
35676;BME280;21790;42.668;23.298;2023-02-13T09:06:00;96564.47;;;9.77;41.36
35676;BME280;21790;42.668;23.298;2023-02-13T09:08:26;96562.59;;;9.66;41.55
35676;BME280;21790;42.668;23.298;2023-02-13T09:10:59;96558.28;;;9.65;41.67
35676;BME280;21790;42.668;23.298;2023-02-13T09:13:27;96557.09;;;9.66;41.84
35676;BME280;21790;42.668;23.298;2023-02-13T09:15:52;96561.41;;;9.68;41.40
35676;BME280;21790;42.668;23.298;2023-02-13T09:18:20;96563.66;;;9.80;41.76
35676;BME280;21790;42.668;23.298;2023-02-13T09:20:46;96560.13;;;9.79;41.25
35676;BME280;21790;42.668;23.298;2023-02-13T09:23:11;96550.09;;;9.58;41.86
35676;BME280;21790;42.668;23.298;2023-02-13T09:25:37;96553.75;;;9.86;41.41
35676;BME280;21790;42.668;23.298;2023-02-13T09:28:02;96556.31;;;10.03;40.90
35676;BME280;21790;42.668;23.298;2023-02-13T09:30:28;96563.47;;;9.97;40.83
35676;BME280;21790;42.668;23.298;2023-02-13T09:32:54;96558.34;;;9.96;40.92
35676;BME280;21790;42.668;23.298;2023-02-13T09:35:20;96547.09;;;10.14;41.23
35676;BME280;21790;42.668;23.298;2023-02-13T09:37:47;96550.47;;;10.28;40.74
35676;BME280;21790;42.668;23.298;2023-02-13T09:40:24;96537.50;;;10.25;40.57
35676;BME280;21790;42.668;23.298;2023-02-13T09:43:06;96553.44;;;10.44;40.40
35676;BME280;21790;42.668;23.298;2023-02-13T09:45:38;96535.34;;;10.06;40.63
35676;BME280;21790;42.668;23.298;2023-02-13T09:48:05;96542.16;;;9.98;40.61
35676;BME280;21790;42.668;23.298;2023-02-13T09:50:33;96535.09;;;10.27;40.83
35676;BME280;21790;42.668;23.298;2023-02-13T09:53:01;96531.63;;;10.77;40.87
35676;BME280;21790;42.668;23.298;2023-02-13T09:55:44;96529.06;;;11.13;40.49
35676;BME280;21790;42.668;23.298;2023-02-13T09:58:30;96523.22;;;11.77;39.92
35676;BME280;21790;42.668;23.298;2023-02-13T10:00:59;96521.50;;;12.23;38.14
35676;BME280;21790;42.668;23.298;2023-02-13T10:06:30;96505.31;;;12.57;37.69
35676;BME280;21790;42.668;23.298;2023-02-13T10:14:48;96488.16;;;12.62;36.67
35676;BME280;21790;42.668;23.298;2023-02-13T10:17:21;96485.47;;;12.58;36.82
35676;BME280;21790;42.668;23.298;2023-02-13T10:20:00;96488.25;;;12.58;36.94
35676;BME280;21790;42.668;23.298;2023-02-13T10:22:43;96485.91;;;13.06;37.03
35676;BME280;21790;42.668;23.298;2023-02-13T10:25:15;96481.34;;;13.15;35.50
35676;BME280;21790;42.668;23.298;2023-02-13T10:27:54;96475.34;;;13.33;36.09
35676;BME280;21790;42.668;23.298;2023-02-13T10:30:32;96467.69;;;13.05;35.95
35676;BME280;21790;42.668;23.298;2023-02-13T10:38:22;96452.03;;;13.14;35.28
35676;BME280;21790;42.668;23.298;2023-02-13T10:47:21;96441.25;;;14.03;35.17
35676;BME280;21790;42.668;23.298;2023-02-13T11:03:04;96423.84;;;14.40;34.06
35676;BME280;21790;42.668;23.298;2023-02-13T11:05:37;96419.41;;;14.55;33.31
35676;BME280;21790;42.668;23.298;2023-02-13T11:08:16;96417.06;;;14.41;33.01
35676;BME280;21790;42.668;23.298;2023-02-13T11:10:42;96410.81;;;14.12;33.61
35676;BME280;21790;42.668;23.298;2023-02-13T11:13:23;96403.09;;;14.03;33.60
35676;BME280;21790;42.668;23.298;2023-02-13T11:16:05;96405.44;;;13.92;33.73
35676;BME280;21790;42.668;23.298;2023-02-13T11:18:33;96402.91;;;14.10;33.85
35676;BME280;21790;42.668;23.298;2023-02-13T11:21:21;96401.50;;;14.44;33.77
35676;BME280;21790;42.668;23.298;2023-02-13T11:23:52;96388.00;;;14.68;32.72
35676;BME280;21790;42.668;23.298;2023-02-13T11:26:40;96380.84;;;14.92;32.63
35676;BME280;21790;42.668;23.298;2023-02-13T11:29:29;96375.31;;;15.14;31.80
35676;BME280;21790;42.668;23.298;2023-02-13T11:32:05;96369.16;;;14.84;32.15
35676;BME280;21790;42.668;23.298;2023-02-13T11:34:32;96376.41;;;14.82;32.22
35676;BME280;21790;42.668;23.298;2023-02-13T11:37:28;96359.13;;;14.99;31.44
35676;BME280;21790;42.668;23.298;2023-02-13T11:39:58;96360.53;;;15.04;31.65
35676;BME280;21790;42.668;23.298;2023-02-13T11:42:30;96361.28;;;14.83;32.51
35676;BME280;21790;42.668;23.298;2023-02-13T11:47:41;96341.94;;;15.57;31.20
35676;BME280;21790;42.668;23.298;2023-02-13T11:50:35;96328.53;;;15.43;30.99
35676;BME280;21790;42.668;23.298;2023-02-13T11:58:30;96306.31;;;15.52;30.96
35676;BME280;21790;42.668;23.298;2023-02-13T12:01:22;96305.50;;;15.30;30.94
35676;BME280;21790;42.668;23.298;2023-02-13T12:04:26;96310.69;;;15.40;30.98
35676;BME280;21790;42.668;23.298;2023-02-13T12:07:02;96297.09;;;15.21;30.70
35676;BME280;21790;42.668;23.298;2023-02-13T12:09:31;96299.28;;;15.04;31.53
35676;BME280;21790;42.668;23.298;2023-02-13T12:12:00;96298.19;;;15.23;30.73
35676;BME280;21790;42.668;23.298;2023-02-13T12:14:33;96293.72;;;15.26;30.91
35676;BME280;21790;42.668;23.298;2023-02-13T12:17:22;96297.94;;;15.52;30.07
35676;BME280;21790;42.668;23.298;2023-02-13T12:19:49;96289.53;;;15.43;30.49
35676;BME280;21790;42.668;23.298;2023-02-13T12:22:18;96298.25;;;15.11;30.48
35676;BME280;21790;42.668;23.298;2023-02-13T12:44:19;96278.75;;;15.76;29.85
35676;BME280;21790;42.668;23.298;2023-02-13T12:47:21;96273.06;;;15.88;39.70
35676;BME280;21790;42.668;23.298;2023-02-13T13:10:54;96241.84;;;15.72;29.15
35676;BME280;21790;42.668;23.298;2023-02-13T13:13:51;96243.19;;;15.58;29.08
35676;BME280;21790;42.668;23.298;2023-02-13T13:19:27;96237.75;;;15.55;28.95
35676;BME280;21790;42.668;23.298;2023-02-13T13:22:01;96231.19;;;15.48;29.18
35676;BME280;21790;42.668;23.298;2023-02-13T13:27:26;96231.94;;;15.18;29.64
35676;BME280;21790;42.668;23.298;2023-02-13T13:30:19;96230.22;;;15.42;29.12
35676;BME280;21790;42.668;23.298;2023-02-13T13:32:51;96223.38;;;15.13;29.65
35676;BME280;21790;42.668;23.298;2023-02-13T13:35:19;96227.78;;;15.01;29.44
35676;BME280;21790;42.668;23.298;2023-02-13T13:37:53;96225.72;;;15.14;29.68
35676;BME280;21790;42.668;23.298;2023-02-13T13:43:31;96215.28;;;15.05;29.68
35676;BME280;21790;42.668;23.298;2023-02-13T13:51:35;96216.94;;;14.94;29.78
35676;BME280;21790;42.668;23.298;2023-02-13T14:07:40;96222.69;;;14.31;30.72
35676;BME280;21790;42.668;23.298;2023-02-13T14:20:41;96202.75;;;14.10;30.78
35676;BME280;21790;42.668;23.298;2023-02-13T14:25:38;96203.13;;;14.34;30.87
35676;BME280;21790;42.668;23.298;2023-02-13T14:28:04;96200.94;;;14.29;30.69
35676;BME280;21790;42.668;23.298;2023-02-13T14:30:35;96189.81;;;14.29;30.79
35676;BME280;21790;42.668;23.298;2023-02-13T14:33:07;96189.06;;;14.03;31.04
35676;BME280;21790;42.668;23.298;2023-02-13T14:36:06;96194.38;;;14.23;30.83
35676;BME280;21790;42.668;23.298;2023-02-13T14:38:34;96188.41;;;13.99;31.18
35676;BME280;21790;42.668;23.298;2023-02-13T14:41:00;96191.63;;;13.98;31.16
35676;BME280;21790;42.668;23.298;2023-02-13T14:43:36;96184.06;;;13.98;31.03
35676;BME280;21790;42.668;23.298;2023-02-13T14:46:28;96191.25;;;14.21;30.91
35676;BME280;21790;42.668;23.298;2023-02-13T14:49:01;96197.66;;;13.96;30.91
35676;BME280;21790;42.668;23.298;2023-02-13T14:51:44;96192.78;;;13.88;31.23
35676;BME280;21790;42.668;23.298;2023-02-13T14:54:35;96191.88;;;13.91;31.08
35676;BME280;21790;42.668;23.298;2023-02-13T14:59:40;96191.25;;;13.61;31.64
35676;BME280;21790;42.668;23.298;2023-02-13T15:02:27;96193.91;;;13.77;31.51
35676;BME280;21790;42.668;23.298;2023-02-13T15:04:57;96187.00;;;13.69;31.57
35676;BME280;21790;42.668;23.298;2023-02-13T15:08:03;96183.13;;;13.67;31.99
35676;BME280;21790;42.668;23.298;2023-02-13T15:10:44;96185.69;;;13.74;31.46
35676;BME280;21790;42.668;23.298;2023-02-13T15:15:50;96195.91;;;13.64;31.53
35676;BME280;21790;42.668;23.298;2023-02-13T15:18:23;96193.34;;;13.57;31.78
35676;BME280;21790;42.668;23.298;2023-02-13T15:20:52;96194.88;;;13.58;31.57
35676;BME280;21790;42.668;23.298;2023-02-13T15:23:25;96184.13;;;13.60;31.58
35676;BME280;21790;42.668;23.298;2023-02-13T15:26:00;96195.47;;;13.40;31.91
35676;BME280;21790;42.668;23.298;2023-02-13T15:28:27;96195.56;;;13.24;31.95
35676;BME280;21790;42.668;23.298;2023-02-13T15:33:32;96202.50;;;13.04;32.36
35676;BME280;21790;42.668;23.298;2023-02-13T15:35:59;96197.63;;;13.08;32.39
35676;BME280;21790;42.668;23.298;2023-02-13T15:41:02;96196.72;;;13.11;32.22
35676;BME280;21790;42.668;23.298;2023-02-13T15:43:37;96186.78;;;12.84;32.75
35676;BME280;21790;42.668;23.298;2023-02-13T15:46:05;96209.59;;;13.05;32.29
35676;BME280;21790;42.668;23.298;2023-02-13T15:48:33;96207.34;;;12.87;32.61
35676;BME280;21790;42.668;23.298;2023-02-13T15:51:00;96208.75;;;12.79;32.63
35676;BME280;21790;42.668;23.298;2023-02-13T15:53:26;96203.91;;;12.54;33.25
35676;BME280;21790;42.668;23.298;2023-02-13T15:56:01;96194.75;;;12.41;33.18
35676;BME280;21790;42.668;23.298;2023-02-13T15:58:32;96211.38;;;12.41;33.37
35676;BME280;21790;42.668;23.298;2023-02-13T16:01:06;96209.28;;;12.45;33.45
35676;BME280;21790;42.668;23.298;2023-02-13T16:03:33;96206.94;;;12.14;33.90
35676;BME280;21790;42.668;23.298;2023-02-13T16:06:00;96207.72;;;12.15;33.75
35676;BME280;21790;42.668;23.298;2023-02-13T16:14:16;96209.88;;;12.07;34.15
35676;BME280;21790;42.668;23.298;2023-02-13T16:21:48;96219.63;;;11.63;34.72
35676;BME280;21790;42.668;23.298;2023-02-13T16:24:15;96225.00;;;11.54;34.95
35676;BME280;21790;42.668;23.298;2023-02-13T16:26:42;96219.97;;;11.49;34.93
35676;BME280;21790;42.668;23.298;2023-02-13T16:29:12;96232.34;;;11.61;34.82
35676;BME280;21790;42.668;23.298;2023-02-13T16:31:42;96230.09;;;11.56;34.82
35676;BME280;21790;42.668;23.298;2023-02-13T16:34:35;96231.84;;;11.66;35.13
35676;BME280;21790;42.668;23.298;2023-02-13T16:37:00;96237.16;;;11.41;35.42
35676;BME280;21790;42.668;23.298;2023-02-13T16:39:31;96236.06;;;11.54;35.26
35676;BME280;21790;42.668;23.298;2023-02-13T16:41:58;96237.97;;;11.57;35.17
35676;BME280;21790;42.668;23.298;2023-02-13T16:44:29;96235.69;;;11.52;35.47
35676;BME280;21790;42.668;23.298;2023-02-13T16:46:55;96231.97;;;11.43;35.33
35676;BME280;21790;42.668;23.298;2023-02-13T16:49:24;96227.41;;;11.52;35.40
35676;BME280;21790;42.668;23.298;2023-02-13T16:54:47;96230.53;;;11.70;35.29
35676;BME280;21790;42.668;23.298;2023-02-13T16:59:50;96237.34;;;11.50;35.35
35676;BME280;21790;42.668;23.298;2023-02-13T17:02:28;96233.81;;;11.49;35.47
35676;BME280;21790;42.668;23.298;2023-02-13T17:10:03;96226.91;;;11.21;35.90
35676;BME280;21790;42.668;23.298;2023-02-13T17:12:36;96221.69;;;11.43;35.48
35676;BME280;21790;42.668;23.298;2023-02-13T17:15:04;96227.22;;;11.43;35.33
35676;BME280;21790;42.668;23.298;2023-02-13T17:17:31;96223.50;;;11.33;35.56
35676;BME280;21790;42.668;23.298;2023-02-13T17:19:58;96226.69;;;11.32;35.54
35676;BME280;21790;42.668;23.298;2023-02-13T17:22:37;96226.59;;;11.36;35.38